createdAt,value
2018-06-09T00:00:59.681Z,77.74
2018-06-09T00:03:28.250Z,77.65
2018-06-09T00:05:56.826Z,77.91
2018-06-09T00:08:25.380Z,77.69
2018-06-09T00:10:53.940Z,78.06
2018-06-09T00:13:22.640Z,78.09
2018-06-09T00:15:51.223Z,77.80
2018-06-09T00:18:20.193Z,77.11
2018-06-09T00:20:48.825Z,77.67
2018-06-09T00:23:17.457Z,77.67
2018-06-09T00:25:46.153Z,77.79
2018-06-09T00:28:14.824Z,77.09
2018-06-09T00:30:43.506Z,78.04
2018-06-09T00:33:12.110Z,77.92
2018-06-09T00:35:40.755Z,77.89
2018-06-09T00:38:09.311Z,78.02
2018-06-09T00:40:37.929Z,77.58
2018-06-09T00:43:06.732Z,78.05
2018-06-09T00:45:35.401Z,77.81
2018-06-09T00:48:04.005Z,77.62
2018-06-09T00:50:33.212Z,78.25
2018-06-09T00:53:01.989Z,78.13
2018-06-09T00:55:30.562Z,78.21
2018-06-09T00:58:00.052Z,78.34
2018-06-09T01:00:28.625Z,78.33
2018-06-09T01:02:57.191Z,77.94
2018-06-09T01:05:25.777Z,78.56
2018-06-09T01:07:54.479Z,78.31
2018-06-09T01:10:24.111Z,78.42
2018-06-09T01:12:53.124Z,78.63
2018-06-09T01:15:21.692Z,78.61
2018-06-09T01:17:50.348Z,78.29
2018-06-09T01:20:19.020Z,78.56
2018-06-09T01:22:47.586Z,78.73
2018-06-09T01:25:16.478Z,79.10
2018-06-09T01:27:45.155Z,79.20
2018-06-09T01:30:13.825Z,79.22
2018-06-09T01:32:42.395Z,79.85
2018-06-09T01:35:11.013Z,79.50
2018-06-09T01:37:39.744Z,80.32
2018-06-09T01:40:09.210Z,80.41
2018-06-09T01:42:43.805Z,80.80
2018-06-09T01:45:12.365Z,81.01
2018-06-09T01:47:41.633Z,80.73
2018-06-09T01:50:10.264Z,80.70
2018-06-09T01:52:38.831Z,80.87
2018-06-09T01:55:07.429Z,81.41
2018-06-09T01:57:36.854Z,81.65
2018-06-09T02:00:05.729Z,81.65
2018-06-09T02:02:34.285Z,81.67
2018-06-09T02:05:02.893Z,81.67
2018-06-09T02:07:35.993Z,81.53
2018-06-09T02:10:04.807Z,82.19
2018-06-09T02:12:33.373Z,82.07
2018-06-09T02:15:01.921Z,82.46
2018-06-09T02:17:30.521Z,82.71
2018-06-09T02:19:59.229Z,82.37
2018-06-09T02:22:27.907Z,82.51
2018-06-09T02:24:56.464Z,82.77
2018-06-09T02:27:25.040Z,83.05
2018-06-09T02:30:19.017Z,83.11
2018-06-09T02:32:47.629Z,82.91
2018-06-09T02:35:16.240Z,83.47
2018-06-09T02:37:44.859Z,82.93
2018-06-09T02:40:13.503Z,83.35
2018-06-09T02:42:42.236Z,82.94
2018-06-09T02:45:10.812Z,83.25
2018-06-09T02:47:39.456Z,83.52
2018-06-09T02:50:08.039Z,83.56
2018-06-09T02:52:36.607Z,83.24
2018-06-09T02:55:05.354Z,83.24
2018-06-09T02:57:33.919Z,83.49
2018-06-09T03:00:02.588Z,84.08
2018-06-09T03:02:31.275Z,84.15
2018-06-09T03:04:59.942Z,84.35
2018-06-09T03:07:28.514Z,84.44
2018-06-09T03:09:57.106Z,83.92
2018-06-09T03:12:39.563Z,84.31
2018-06-09T03:15:17.169Z,84.51
2018-06-09T03:17:45.731Z,84.29
2018-06-09T03:20:14.272Z,84.70
2018-06-09T03:22:42.886Z,84.37
2018-06-09T03:25:11.440Z,84.37
2018-06-09T03:27:40.341Z,84.76
2018-06-09T03:30:08.940Z,84.94
2018-06-09T03:32:37.630Z,84.33
2018-06-09T03:35:06.329Z,84.64
2018-06-09T03:37:35.013Z,84.58
2018-06-09T03:40:03.886Z,84.85
2018-06-09T03:42:32.961Z,84.22
2018-06-09T03:45:01.512Z,84.22
2018-06-09T03:47:43.070Z,84.24
2018-06-09T03:50:12.302Z,84.31
2018-06-09T03:52:40.942Z,84.54
2018-06-09T03:55:09.493Z,84.60
2018-06-09T03:57:38.063Z,84.24
2018-06-09T04:00:06.721Z,84.50
2018-06-09T04:02:35.368Z,84.51
2018-06-09T04:05:04.225Z,84.09
2018-06-09T04:07:33.976Z,84.24
2018-06-09T04:10:02.550Z,84.29
2018-06-09T04:12:31.374Z,83.95
2018-06-09T04:15:00.047Z,84.23
2018-06-09T04:17:28.957Z,83.67
2018-06-09T04:19:57.609Z,83.86
2018-06-09T04:22:26.271Z,83.26
2018-06-09T04:24:54.845Z,83.04
2018-06-09T04:27:23.421Z,82.46
2018-06-09T04:29:52.217Z,82.82
2018-06-09T04:32:20.837Z,82.86
2018-06-09T04:34:49.424Z,82.78
2018-06-09T04:37:18.012Z,82.33
2018-06-09T04:39:46.752Z,82.34
2018-06-09T04:42:15.383Z,82.79
2018-06-09T04:44:43.982Z,82.29
2018-06-09T04:47:12.581Z,82.68
2018-06-09T04:49:41.292Z,82.00
2018-06-09T04:52:11.071Z,81.99
2018-06-09T04:54:40.485Z,82.64
2018-06-09T04:57:09.262Z,82.54
2018-06-09T04:59:37.936Z,82.18
2018-06-09T05:02:06.714Z,82.08
2018-06-09T05:04:35.428Z,82.25
2018-06-09T05:07:04.008Z,81.67
2018-06-09T05:09:32.575Z,81.76
2018-06-09T05:12:01.158Z,81.83
2018-06-09T05:14:29.804Z,81.44
2018-06-09T05:16:59.041Z,81.91
2018-06-09T05:19:27.626Z,81.62
2018-06-09T05:21:56.302Z,81.24
2018-06-09T05:24:24.919Z,80.83
2018-06-09T05:26:53.589Z,80.32
2018-06-09T05:29:22.276Z,80.25
2018-06-09T05:31:50.862Z,80.38
2018-06-09T05:34:19.548Z,80.25
2018-06-09T05:36:48.238Z,79.78
2018-06-09T05:39:39.928Z,79.66
2018-06-09T05:42:08.520Z,79.47
2018-06-09T05:44:37.110Z,78.91
2018-06-09T05:47:05.857Z,78.89
2018-06-09T05:49:34.491Z,79.09
2018-06-09T05:52:03.925Z,78.74
2018-06-09T05:54:32.569Z,78.32
2018-06-09T05:57:01.853Z,77.96
2018-06-09T05:59:30.672Z,77.79
2018-06-09T06:01:59.255Z,77.71
2018-06-09T06:04:27.839Z,77.31
2018-06-09T06:06:56.651Z,77.29
2018-06-09T06:09:25.360Z,77.71
2018-06-09T06:11:54.022Z,77.15
2018-06-09T06:14:22.609Z,77.24
2018-06-09T06:16:51.353Z,76.72
2018-06-09T06:19:34.230Z,76.87
2018-06-09T06:22:02.882Z,76.50
2018-06-09T06:24:31.575Z,76.37
2018-06-09T06:27:00.948Z,76.07
2018-06-09T06:29:29.549Z,76.25
2018-06-09T06:31:58.195Z,76.23
2018-06-09T06:34:26.778Z,75.87
2018-06-09T06:36:55.452Z,75.96
2018-06-09T06:39:24.091Z,75.47
2018-06-09T06:41:52.817Z,74.89
2018-06-09T06:44:21.383Z,74.35
2018-06-09T06:47:07.561Z,74.12
2018-06-09T06:49:49.585Z,73.52
2018-06-09T06:52:18.158Z,73.30
2018-06-09T06:54:46.725Z,73.14
2018-06-09T06:57:15.292Z,73.14
2018-06-09T06:59:43.990Z,72.94
2018-06-09T07:02:24.014Z,73.17
2018-06-09T07:04:52.629Z,73.00
2018-06-09T07:07:22.503Z,72.65
2018-06-09T07:10:09.760Z,72.26
2018-06-09T07:12:38.326Z,72.67
2018-06-09T07:15:07.033Z,72.68
2018-06-09T07:17:35.865Z,73.05
2018-06-09T07:20:04.739Z,72.67
2018-06-09T07:22:34.177Z,72.11
2018-06-09T07:25:02.827Z,72.06
2018-06-09T07:27:31.409Z,71.84
2018-06-09T07:30:00.096Z,72.18
2018-06-09T07:32:28.843Z,71.73
2018-06-09T07:34:57.504Z,71.39
2018-06-09T07:37:26.064Z,70.94
2018-06-09T07:39:54.732Z,71.08
2018-06-09T07:42:23.459Z,70.85
2018-06-09T07:44:52.093Z,70.65
2018-06-09T07:47:20.744Z,69.82
2018-06-09T07:49:49.316Z,69.68
2018-06-09T07:52:18.588Z,69.17
2018-06-09T07:54:47.353Z,69.70
2018-06-09T07:57:15.941Z,70.35
2018-06-09T07:59:44.548Z,70.09
2018-06-09T08:02:13.227Z,70.18
2018-06-09T08:04:41.789Z,69.55
2018-06-09T08:07:10.768Z,69.03
2018-06-09T08:09:39.341Z,69.49
2018-06-09T08:12:08.111Z,69.69
2018-06-09T08:14:36.796Z,69.26
2018-06-09T08:17:05.513Z,68.95
2018-06-09T08:19:34.220Z,68.74
2018-06-09T08:22:02.959Z,68.68
2018-06-09T08:24:31.716Z,67.53
2018-06-09T08:27:00.289Z,67.53
2018-06-09T08:29:28.864Z,67.10
2018-06-09T08:31:57.660Z,67.25
2018-06-09T08:34:28.236Z,67.64
2018-06-09T08:36:56.870Z,66.96
2018-06-09T08:39:25.559Z,66.43
2018-06-09T08:41:54.155Z,66.11
2018-06-09T08:44:22.822Z,65.68
2018-06-09T08:46:51.409Z,65.41
2018-06-09T08:49:20.129Z,64.24
2018-06-09T08:51:48.696Z,65.09
2018-06-09T08:54:17.263Z,64.48
2018-06-09T08:56:46.184Z,65.18
2018-06-09T08:59:14.844Z,65.80
2018-06-09T09:01:44.078Z,64.79
2018-06-09T09:04:12.688Z,64.49
2018-06-09T09:06:41.317Z,65.08
2018-06-09T09:09:10.020Z,65.10
2018-06-09T09:11:38.790Z,66.64
2018-06-09T09:14:07.509Z,65.42
2018-06-09T09:16:36.214Z,65.00
2018-06-09T09:19:04.860Z,64.75
2018-06-09T09:21:34.054Z,63.63
2018-06-09T09:24:02.691Z,65.58
2018-06-09T09:26:31.442Z,64.18
2018-06-09T09:29:18.876Z,65.59
2018-06-09T09:31:49.685Z,64.87
2018-06-09T09:34:18.234Z,63.75
2018-06-09T09:36:46.970Z,63.82
2018-06-09T09:39:16.842Z,63.45
2018-06-09T09:41:45.496Z,62.92
2018-06-09T09:44:26.836Z,62.88
2018-06-09T09:46:55.409Z,62.17
2018-06-09T09:49:23.961Z,61.99
2018-06-09T09:51:52.603Z,62.89
2018-06-09T09:54:25.256Z,63.58
2018-06-09T09:56:55.269Z,62.63
2018-06-09T09:59:23.821Z,61.11
2018-06-09T10:01:53.459Z,61.69
2018-06-09T10:04:25.173Z,62.17
2018-06-09T10:06:53.755Z,63.25
2018-06-09T10:09:22.365Z,61.87
2018-06-09T10:11:55.250Z,61.12
2018-06-09T10:14:24.603Z,61.79
2018-06-09T10:16:53.458Z,61.01
2018-06-09T10:19:22.566Z,59.80
2018-06-09T10:25:34.877Z,59.39
2018-06-09T10:28:06.017Z,59.45
2018-06-09T10:30:34.739Z,59.45
2018-06-09T10:33:05.362Z,59.23
2018-06-09T10:35:36.052Z,59.80
2018-06-09T10:38:05.055Z,58.60
2018-06-09T10:40:33.660Z,58.15
2018-06-09T10:43:02.569Z,58.12
2018-06-09T10:45:31.240Z,57.01
2018-06-09T10:47:59.937Z,56.19
2018-06-09T10:50:28.561Z,55.75
2018-06-09T10:52:57.109Z,56.36
2018-06-09T10:55:25.793Z,56.47
2018-06-09T10:57:54.563Z,55.88
2018-06-09T11:00:23.147Z,56.15
2018-06-09T11:02:51.943Z,55.78
2018-06-09T11:05:20.680Z,56.00
2018-06-09T11:07:50.232Z,57.20
2018-06-09T11:10:20.551Z,55.63
2018-06-09T11:12:49.244Z,55.78
2018-06-09T11:15:18.087Z,56.30
2018-06-09T11:17:46.812Z,55.02
2018-06-09T11:20:15.421Z,54.34
2018-06-09T11:22:45.223Z,54.11
2018-06-09T11:25:13.913Z,53.63
2018-06-09T11:27:42.731Z,52.43
2018-06-09T11:30:11.375Z,51.99
2018-06-09T11:32:40.031Z,51.56
2018-06-09T11:35:08.851Z,51.31
2018-06-09T11:37:37.528Z,51.46
2018-06-09T11:40:06.375Z,50.44
2018-06-09T11:42:35.005Z,52.22
2018-06-09T11:45:03.607Z,51.94
2018-06-09T11:47:32.337Z,48.64
2018-06-09T11:50:00.973Z,47.52
2018-06-09T11:52:29.869Z,45.94
2018-06-09T11:54:58.491Z,45.50
2018-06-09T11:57:27.066Z,45.55
2018-06-09T11:59:55.695Z,45.75
2018-06-09T12:02:31.852Z,43.99
2018-06-09T12:05:00.538Z,43.58
2018-06-09T12:07:29.156Z,44.15
2018-06-09T12:09:57.837Z,43.46
2018-06-09T12:12:26.528Z,42.71
2018-06-09T12:14:55.209Z,43.09
2018-06-09T12:17:24.025Z,44.83
2018-06-09T12:19:52.677Z,45.46
2018-06-09T12:22:21.470Z,44.48
2018-06-09T12:24:50.122Z,43.27
2018-06-09T12:27:18.730Z,42.57
2018-06-09T12:29:47.316Z,43.31
2018-06-09T12:32:16.028Z,41.63
2018-06-09T12:34:44.783Z,41.18
2018-06-09T12:37:13.426Z,40.60
2018-06-09T12:39:42.773Z,42.13
2018-06-09T12:42:11.459Z,41.17
2018-06-09T12:44:40.289Z,41.60
2018-06-09T12:47:08.851Z,42.29
2018-06-09T12:49:58.175Z,42.34
2018-06-09T12:52:26.886Z,42.48
2018-06-09T12:54:55.466Z,41.81
2018-06-09T12:57:24.171Z,42.07
2018-06-09T12:59:52.770Z,43.70
2018-06-09T13:02:21.316Z,43.79
2018-06-09T13:04:54.924Z,45.35
2018-06-09T13:07:23.534Z,46.25
2018-06-09T13:09:52.232Z,46.33
2018-06-09T13:12:20.816Z,45.24
2018-06-09T13:14:49.450Z,46.42
2018-06-09T13:17:18.209Z,47.43
2018-06-09T13:19:46.821Z,48.25
2018-06-09T13:22:16.025Z,47.98
2018-06-09T13:24:44.616Z,48.91
2018-06-09T13:27:13.924Z,49.75
2018-06-09T13:29:42.593Z,49.66
2018-06-09T13:32:11.294Z,48.33
2018-06-09T13:34:39.964Z,47.53
2018-06-09T13:37:08.770Z,45.27
2018-06-09T13:39:37.428Z,43.45
2018-06-09T13:42:06.080Z,43.91
2018-06-09T13:44:34.767Z,44.45
2018-06-09T13:47:03.511Z,45.78
2018-06-09T13:49:32.192Z,46.10
2018-06-09T13:52:00.865Z,46.04
2018-06-09T13:54:30.290Z,46.69
2018-06-09T13:56:58.894Z,47.14
2018-06-09T13:59:27.530Z,47.34
2018-06-09T14:01:56.133Z,47.86
2018-06-09T14:04:24.727Z,46.40
2018-06-09T14:06:53.518Z,45.71
2018-06-09T14:09:22.117Z,43.77
2018-06-09T14:11:59.274Z,42.09
2018-06-09T14:14:27.965Z,40.87
2018-06-09T14:16:56.635Z,42.78
2018-06-09T14:19:26.010Z,44.24
2018-06-09T14:21:54.603Z,42.98
2018-06-09T14:24:23.457Z,41.83
2018-06-09T14:26:52.258Z,41.58
2018-06-09T14:29:20.799Z,42.38
2018-06-09T14:31:49.382Z,41.94
2018-06-09T14:34:18.021Z,42.85
2018-06-09T14:36:46.628Z,43.81
2018-06-09T14:39:15.209Z,43.72
2018-06-09T14:41:43.885Z,44.58
2018-06-09T14:44:12.473Z,45.31
2018-06-09T14:46:41.153Z,46.78
2018-06-09T14:49:09.784Z,47.12
2018-06-09T14:51:38.480Z,46.90
2018-06-09T14:54:07.331Z,46.53
2018-06-09T14:56:35.969Z,46.23
2018-06-09T14:59:04.811Z,46.11
2018-06-09T15:01:33.592Z,46.11
2018-06-09T15:04:02.374Z,46.96
2018-06-09T15:06:30.953Z,46.75
2018-06-09T15:08:59.568Z,46.11
2018-06-09T15:11:28.276Z,45.11
2018-06-09T15:13:56.804Z,45.42
2018-06-09T15:16:25.482Z,46.82
2018-06-09T15:19:19.225Z,46.36
2018-06-09T15:21:47.811Z,46.48
2018-06-09T15:24:16.485Z,46.43
2018-06-09T15:26:45.267Z,45.68
2018-06-09T15:29:13.909Z,44.50
2018-06-09T15:31:49.953Z,45.49
2018-06-09T15:34:18.665Z,44.79
2018-06-09T15:36:47.353Z,44.80
2018-06-09T15:39:16.756Z,43.87
2018-06-09T15:41:45.446Z,44.03
2018-06-09T15:44:14.096Z,43.58
2018-06-09T15:46:42.780Z,44.23
2018-06-09T15:49:11.909Z,44.77
2018-06-09T15:51:40.630Z,45.97
2018-06-09T15:54:09.206Z,45.96
2018-06-09T15:56:37.945Z,46.34
2018-06-09T15:59:10.112Z,46.26
2018-06-09T16:01:38.699Z,45.48
2018-06-09T16:04:07.401Z,47.05
2018-06-09T16:06:36.087Z,46.55
2018-06-09T16:09:06.466Z,48.16
2018-06-09T16:11:35.056Z,47.43
2018-06-09T16:14:03.779Z,48.04
2018-06-09T16:16:32.461Z,48.68
2018-06-09T16:19:04.221Z,47.96
2018-06-09T16:21:32.788Z,47.48
2018-06-09T16:24:01.429Z,47.30
2018-06-09T16:26:30.064Z,46.45
2018-06-09T16:28:58.690Z,45.76
2018-06-09T16:31:27.289Z,46.44
2018-06-09T16:33:55.917Z,46.10
2018-06-09T16:36:41.668Z,45.47
2018-06-09T16:39:10.292Z,46.19
2018-06-09T16:41:38.961Z,46.98
2018-06-09T16:44:07.659Z,47.19
2018-06-09T16:46:36.491Z,47.68
2018-06-09T16:49:05.137Z,47.33
2018-06-09T16:51:33.813Z,47.53
2018-06-09T16:54:04.076Z,47.41
2018-06-09T16:57:03.001Z,47.34
2018-06-09T16:59:31.633Z,47.86
2018-06-09T17:02:00.383Z,47.96
2018-06-09T17:04:29.123Z,49.01
2018-06-09T17:06:57.761Z,49.61
2018-06-09T17:09:26.345Z,49.14
2018-06-09T17:11:55.076Z,49.64
2018-06-09T17:14:23.672Z,49.23
2018-06-09T17:16:52.424Z,49.66
2018-06-09T17:19:21.092Z,49.96
2018-06-09T17:21:49.838Z,49.27
2018-06-09T17:24:18.384Z,49.30
2018-06-09T17:26:54.166Z,49.41
2018-06-09T17:29:22.801Z,49.99
2018-06-09T17:31:51.412Z,50.50
2018-06-09T17:34:19.996Z,50.97
2018-06-09T17:36:48.639Z,50.96
2018-06-09T17:39:17.957Z,50.70
2018-06-09T17:41:46.523Z,51.35
2018-06-09T17:44:15.109Z,51.86
2018-06-09T17:46:43.712Z,52.62
2018-06-09T17:49:12.325Z,52.39
2018-06-09T17:51:40.988Z,52.77
2018-06-09T17:54:09.676Z,53.38
2018-06-09T17:56:38.368Z,53.60
2018-06-09T17:59:07.045Z,54.23
2018-06-09T18:01:35.628Z,54.50
2018-06-09T18:04:04.401Z,54.81
2018-06-09T18:06:33.001Z,55.05
2018-06-09T18:09:01.588Z,54.84
2018-06-09T18:11:30.273Z,54.53
2018-06-09T18:13:59.012Z,54.72
2018-06-09T18:16:27.624Z,55.19
2018-06-09T18:18:56.323Z,54.93
2018-06-09T18:21:25.020Z,55.60
2018-06-09T18:24:08.542Z,55.79
2018-06-09T18:26:37.204Z,55.56
2018-06-09T18:29:05.831Z,56.17
2018-06-09T18:31:34.505Z,56.52
2018-06-09T18:34:03.297Z,56.61
2018-06-09T18:36:31.993Z,56.88
2018-06-09T18:39:00.697Z,56.48
2018-06-09T18:41:29.265Z,56.84
2018-06-09T18:43:57.936Z,57.13
2018-06-09T18:46:26.521Z,57.29
2018-06-09T18:48:55.160Z,59.61
2018-06-09T18:51:23.920Z,59.43
2018-06-09T18:53:52.572Z,60.05
2018-06-09T18:56:22.183Z,62.03
2018-06-09T18:58:51.097Z,62.08
2018-06-09T19:01:19.723Z,60.64
2018-06-09T19:03:49.081Z,60.60
2018-06-09T19:06:25.042Z,61.38
2018-06-09T19:08:54.785Z,62.60
2018-06-09T19:11:23.437Z,63.66
2018-06-09T19:13:52.086Z,64.88
2018-06-09T19:16:20.692Z,64.67
2018-06-09T19:18:49.366Z,65.37
2018-06-09T19:21:21.371Z,66.10
2018-06-09T19:23:49.972Z,66.09
2018-06-09T19:26:18.620Z,66.16
2018-06-09T19:28:48.012Z,66.46
2018-06-09T19:31:16.869Z,65.70
2018-06-09T19:33:46.170Z,66.35
2018-06-09T19:36:15.449Z,66.89
2018-06-09T19:38:45.273Z,66.82
2018-06-09T19:41:13.993Z,68.15
2018-06-09T19:43:43.303Z,67.82
2018-06-09T19:46:11.899Z,67.85
2018-06-09T19:48:40.595Z,68.46
2018-06-09T19:51:09.322Z,68.52
2018-06-09T19:53:38.195Z,68.67
2018-06-09T19:56:06.854Z,68.24
2018-06-09T19:58:35.558Z,68.76
2018-06-09T20:01:04.980Z,68.25
2018-06-09T20:03:33.671Z,69.01
2018-06-09T20:06:03.780Z,69.72
2018-06-09T20:08:32.398Z,69.82
2018-06-09T20:11:01.247Z,70.13
2018-06-09T20:13:30.126Z,70.05
2018-06-09T20:15:58.992Z,69.55
2018-06-09T20:18:27.828Z,69.60
2018-06-09T20:20:56.538Z,69.33
2018-06-09T20:23:25.388Z,69.11
2018-06-09T20:25:54.172Z,68.78
2018-06-09T20:28:23.089Z,68.90
2018-06-09T20:30:52.067Z,68.54
2018-06-09T20:33:22.062Z,68.48
2018-06-09T20:35:50.877Z,68.70
2018-06-09T20:38:19.845Z,69.16
2018-06-09T20:40:48.463Z,69.25
2018-06-09T20:43:17.212Z,69.32
2018-06-09T20:45:46.107Z,69.63
2018-06-09T20:48:37.055Z,69.21
2018-06-09T20:51:05.920Z,69.76
2018-06-09T20:53:34.610Z,71.13
2018-06-09T20:56:04.043Z,71.47
2018-06-09T20:58:39.296Z,71.93
2018-06-09T21:01:08.360Z,72.42
2018-06-09T21:03:37.273Z,72.58
2018-06-09T21:06:06.172Z,72.21
2018-06-09T21:08:34.911Z,71.75
2018-06-09T21:11:03.662Z,71.60
2018-06-09T21:13:32.433Z,71.64
2018-06-09T21:16:01.214Z,71.99
2018-06-09T21:18:29.830Z,72.68
2018-06-09T21:20:58.564Z,73.38
2018-06-09T21:23:27.926Z,73.57
2018-06-09T21:25:57.385Z,73.51
2018-06-09T21:28:27.975Z,73.22
2018-06-09T21:31:01.890Z,73.24
2018-06-09T21:33:47.290Z,72.96
2018-06-09T21:36:20.827Z,73.48
2018-06-09T21:38:54.831Z,73.59
2018-06-09T21:41:27.614Z,73.16
2018-06-09T21:44:01.152Z,73.18
2018-06-09T21:46:35.248Z,72.63
2018-06-09T21:49:04.686Z,72.84
2018-06-09T21:51:33.364Z,72.66
2018-06-09T21:54:02.780Z,72.82
2018-06-09T21:56:31.441Z,72.68
2018-06-09T21:59:00.244Z,72.04
2018-06-09T22:01:28.932Z,72.85
2018-06-09T22:03:57.634Z,72.99
2018-06-09T22:06:26.293Z,72.92
2018-06-09T22:08:55.039Z,73.01
2018-06-09T22:11:24.379Z,72.77
2018-06-09T22:13:53.036Z,73.05
2018-06-09T22:16:21.654Z,73.30
2018-06-09T22:18:50.348Z,72.86
2018-06-09T22:21:19.278Z,73.23
2018-06-09T22:23:48.069Z,73.45
2018-06-09T22:26:17.033Z,73.13
2018-06-09T22:28:45.684Z,72.99
2018-06-09T22:31:14.384Z,73.21
2018-06-09T22:33:43.010Z,73.21
2018-06-09T22:36:11.608Z,73.68
2018-06-09T22:38:40.340Z,73.40
2018-06-09T22:41:09.037Z,73.67
2018-06-09T22:43:37.711Z,73.27
2018-06-09T22:46:06.428Z,73.48
2018-06-09T22:48:35.121Z,73.57
2018-06-09T22:51:03.721Z,73.08
2018-06-09T22:53:32.549Z,73.52
2018-06-09T22:56:01.256Z,73.91
2018-06-09T22:58:30.005Z,74.14
2018-06-09T23:00:58.925Z,74.83
2018-06-09T23:03:27.649Z,74.71
2018-06-09T23:06:13.217Z,74.60
2018-06-09T23:08:41.887Z,74.04
2018-06-09T23:11:10.468Z,74.00
2018-06-09T23:13:39.150Z,73.82
2018-06-09T23:16:07.747Z,73.64
2018-06-09T23:18:36.288Z,73.79
2018-06-09T23:21:12.281Z,74.72
2018-06-09T23:23:40.949Z,74.38
2018-06-09T23:26:09.537Z,74.65
2018-06-09T23:28:38.443Z,74.37
2018-06-09T23:31:07.086Z,74.54
2018-06-09T23:33:35.837Z,74.99
2018-06-09T23:36:04.412Z,74.87
2018-06-09T23:38:33.084Z,75.03
2018-06-09T23:41:01.867Z,75.05
2018-06-09T23:43:30.557Z,75.47
2018-06-09T23:45:59.188Z,75.48
2018-06-09T23:48:27.823Z,75.48
2018-06-09T23:50:56.397Z,75.58
2018-06-09T23:53:25.251Z,75.40
2018-06-09T23:56:04.896Z,75.75
2018-06-09T23:58:33.452Z,75.80
